Time;durP1;ratioP1;P1;durP2;ratioP2;P2;SDS_P1;SDS_P2;PMS_P1;PMS_P2;Temp;Humidity;BMP_temperature;BMP_pressure;BME280_temperature;BME280_humidity;BME280_pressure;Samples;Min_cycle;Max_cycle;Signal;HPM_P1;HPM_P2
2022/10/03 00:01:54;;;;;;;1.10;0.75;;;;;;;22.65;44.08;100510.95;1769120;81;20998;-73
2022/10/03 00:04:48;;;;;;;1.45;0.90;;;;;;;22.65;44.10;100504.83;1775587;80;21046;-73
2022/10/03 00:07:46;;;;;;;1.37;0.80;;;;;;;22.65;44.07;100503.45;1774524;79;21197;-73
2022/10/03 00:10:36;;;;;;;1.07;0.78;;;;;;;22.66;44.06;100505.65;1775696;80;21070;-73
2022/10/03 00:13:35;;;;;;;1.35;0.90;;;;;;;22.64;44.03;100499.05;1775937;80;20967;-73
2022/10/03 00:16:18;;;;;;;2.05;0.95;;;;;;;22.65;44.04;100494.31;1803798;79;21030;-73
2022/10/03 00:19:09;;;;;;;1.22;0.80;;;;;;;22.66;44.03;100481.47;1803665;78;21058;-75
2022/10/03 00:21:59;;;;;;;1.07;0.80;;;;;;;22.66;44.03;100470.98;1803615;78;21175;-74
2022/10/03 00:24:43;;;;;;;1.82;0.90;;;;;;;22.65;44.03;100470.17;1803779;79;21340;-74
2022/10/03 00:27:47;;;;;;;1.07;0.80;;;;;;;22.65;44.06;100459.08;1803442;79;21006;-73
2022/10/03 00:30:23;;;;;;;1.52;0.80;;;;;;;22.66;44.02;100458.51;1731465;78;21500;-73
2022/10/03 00:33:21;;;;;;;1.98;0.90;;;;;;;22.66;44.01;100461.28;1794397;79;21118;-73
2022/10/03 00:36:13;;;;;;;2.02;1.00;;;;;;;22.66;44.03;100452.96;1803767;77;22077;-73
2022/10/03 00:39:24;;;;;;;1.20;0.90;;;;;;;22.65;44.00;100443.83;1803826;79;21440;-73
2022/10/03 00:42:06;;;;;;;1.72;0.93;;;;;;;22.65;44.00;100443.83;1803952;79;21547;-73
2022/10/03 00:44:49;;;;;;;1.07;0.80;;;;;;;22.65;43.97;100446.60;1790651;78;21100;-73
2022/10/03 00:47:45;;;;;;;0.80;0.60;;;;;;;22.66;44.01;100452.96;1793322;80;21044;-73
2022/10/03 00:50:43;;;;;;;1.95;0.85;;;;;;;22.64;44.00;100447.74;1792881;80;21451;-75
2022/10/03 00:53:40;;;;;;;1.12;0.72;;;;;;;22.65;44.00;100450.77;1793089;80;21431;-73
2022/10/03 00:56:36;;;;;;;2.10;0.80;;;;;;;22.65;44.00;100456.30;1777325;80;21702;-73
2022/10/03 00:59:20;;;;;;;1.12;0.80;;;;;;;22.66;44.00;100457.13;1775049;80;21021;-73
2022/10/03 01:01:47;;;;;;;2.77;1.10;;;;;;;22.64;43.98;100454.67;1777183;80;21041;-73
2022/10/03 01:04:49;;;;;;;1.30;0.70;;;;;;;22.64;43.97;100445.55;1793547;80;21516;-73
2022/10/03 01:07:44;;;;;;;1.47;1.00;;;;;;;22.66;44.00;100441.87;1776928;79;20978;-73
2022/10/03 01:10:26;;;;;;;1.85;1.00;;;;;;;22.65;44.00;100436.89;1776689;79;21042;-73
2022/10/03 01:13:03;;;;;;;1.37;0.80;;;;;;;22.65;44.01;100441.05;1777149;78;20983;-74
2022/10/03 01:15:41;;;;;;;1.25;0.90;;;;;;;22.65;44.01;100441.05;1777440;80;21074;-74
2022/10/03 01:18:23;;;;;;;1.90;0.80;;;;;;;22.64;44.01;100435.84;1776913;78;21292;-74
2022/10/03 01:21:10;;;;;;;1.30;0.88;;;;;;;22.65;44.00;100441.63;1792297;79;21074;-73
2022/10/03 01:24:03;;;;;;;1.72;0.85;;;;;;;22.66;44.01;100437.71;1788270;79;21364;-73
2022/10/03 01:26:52;;;;;;;1.77;0.72;;;;;;;22.65;44.02;100436.89;1784198;80;21569;-73
2022/10/03 01:33:04;;;;;;;3.00;0.75;;;;;;;22.64;43.97;100446.93;1781340;80;21469;-73
2022/10/03 01:35:47;;;;;;;1.57;0.95;;;;;;;22.64;43.95;100458.84;1809174;79;21564;-74
2022/10/03 01:38:59;;;;;;;1.40;0.90;;;;;;;22.64;43.96;100460.80;1809492;79;21014;-74
2022/10/03 01:41:51;;;;;;;1.42;0.98;;;;;;;22.64;43.94;100451.91;1807798;77;21133;-74
2022/10/03 01:44:25;;;;;;;2.10;0.98;;;;;;;22.63;43.98;100458.59;1809329;79;21007;-73
2022/10/03 01:47:15;;;;;;;1.60;0.85;;;;;;;22.63;43.95;100456.39;1801575;79;21137;-73
2022/10/03 01:49:46;;;;;;;1.20;0.85;;;;;;;22.62;43.97;100456.96;1809218;79;21054;-73
2022/10/03 01:52:42;;;;;;;1.20;0.90;;;;;;;22.62;44.00;100460.31;1809044;78;21070;-74
2022/10/03 01:55:36;;;;;;;1.50;1.00;;;;;;;22.62;43.98;100457.53;1776184;79;21067;-74
2022/10/03 01:58:26;;;;;;;0.93;0.78;;;;;;;22.61;44.00;100453.98;1797171;78;20991;-74
2022/10/03 02:01:10;;;;;;;1.02;0.70;;;;;;;22.61;44.04;100459.52;1797617;77;21137;-73
2022/10/03 02:03:48;;;;;;;1.47;0.90;;;;;;;22.61;44.03;100458.70;1797471;79;20999;-74
2022/10/03 02:06:48;;;;;;;2.10;0.98;;;;;;;22.61;44.04;100462.30;1796810;77;21488;-74
2022/10/03 02:09:26;;;;;;;1.22;0.70;;;;;;;22.60;44.06;100475.10;1797390;79;21047;-73
2022/10/03 02:12:13;;;;;;;1.42;0.85;;;;;;;22.60;44.05;100465.40;1797536;78;21078;-73
2022/10/03 02:14:57;;;;;;;2.65;1.00;;;;;;;22.58;44.05;100467.11;1797353;79;21017;-73
2022/10/03 02:17:51;;;;;;;1.52;1.07;;;;;;;22.58;44.06;100458.80;1797742;78;21090;-74
2022/10/03 02:20:32;;;;;;;1.40;0.95;;;;;;;22.60;44.07;100469.56;1797360;79;20996;-74
2022/10/03 02:22:58;;;;;;;1.95;1.00;;;;;;;22.59;44.08;100459.61;1797534;79;21074;-73
2022/10/03 02:25:42;;;;;;;1.25;0.82;;;;;;;22.57;44.11;100466.91;1770834;79;21473;-74
2022/10/03 02:28:37;;;;;;;1.75;1.12;;;;;;;22.59;44.13;100470.13;1773437;79;21998;-73
2022/10/03 02:31:31;;;;;;;1.30;0.90;;;;;;;22.58;44.12;100461.56;1797234;78;21039;-74
2022/10/03 02:34:18;;;;;;;1.55;1.00;;;;;;;22.58;44.09;100460.75;1797785;79;21086;-74
2022/10/03 02:37:32;;;;;;;1.77;1.00;;;;;;;22.58;44.07;100459.37;1797147;78;21031;-74
2022/10/03 02:40:07;;;;;;;1.80;1.10;;;;;;;22.58;44.07;100456.02;1797569;79;21093;-74
2022/10/03 02:42:54;;;;;;;2.52;1.20;;;;;;;22.57;44.07;100455.81;1795377;78;21372;-74
2022/10/03 02:45:47;;;;;;;2.17;1.10;;;;;;;22.57;44.09;100454.42;1797367;79;21445;-74
2022/10/03 02:48:50;;;;;;;2.50;1.00;;;;;;;22.57;44.12;100457.20;1786056;79;21039;-73
2022/10/03 02:52:01;;;;;;;1.98;1.07;;;;;;;22.57;44.08;100452.22;1790541;79;21537;-74
2022/10/03 02:54:39;;;;;;;2.30;1.10;;;;;;;22.56;44.08;100454.75;1797045;79;21556;-73
2022/10/03 02:57:39;;;;;;;1.47;1.15;;;;;;;22.56;44.07;100457.52;1797756;79;22337;-73
2022/10/03 03:00:21;;;;;;;1.25;0.93;;;;;;;22.55;44.12;100463.64;1797332;79;21399;-74
2022/10/03 03:03:36;;;;;;;1.98;1.02;;;;;;;22.55;44.12;100474.73;1797582;79;21512;-74
2022/10/03 03:06:44;;;;;;;1.55;0.98;;;;;;;22.56;44.08;100478.31;1797328;79;21070;-74
2022/10/03 03:09:31;;;;;;;2.62;1.05;;;;;;;22.55;44.09;100463.64;1797570;79;21070;-74
2022/10/03 03:12:27;;;;;;;1.52;1.00;;;;;;;22.55;44.09;100464.21;1797276;79;21142;-74
2022/10/03 03:15:11;;;;;;;1.40;1.00;;;;;;;22.54;44.09;100470.33;1797175;78;21066;-74
2022/10/03 03:17:58;;;;;;;1.45;0.90;;;;;;;22.54;44.08;100463.40;1797373;79;20999;-74
2022/10/03 03:20:51;;;;;;;1.75;1.20;;;;;;;22.53;44.09;100472.86;1796655;79;21028;-76
2022/10/03 03:23:41;;;;;;;2.05;1.27;;;;;;;22.54;44.10;100476.44;1786728;78;21007;-74
2022/10/03 03:26:19;;;;;;;1.65;1.10;;;;;;;22.53;44.10;100478.41;1797439;77;21135;-73
2022/10/03 03:28:51;;;;;;;2.00;1.22;;;;;;;22.53;44.08;100474.24;1797259;79;21046;-74
2022/10/03 03:31:43;;;;;;;1.22;0.98;;;;;;;22.55;44.08;100464.21;1797673;79;21051;-74
2022/10/03 03:34:27;;;;;;;1.52;1.00;;;;;;;22.54;44.09;100453.69;1797294;79;21023;-73
2022/10/03 03:37:08;;;;;;;1.55;1.05;;;;;;;22.55;44.06;100463.64;1796936;76;21025;-74
2022/10/03 03:39:45;;;;;;;1.72;1.20;;;;;;;22.54;44.07;100461.20;1797242;77;21216;-73
2022/10/03 03:42:45;;;;;;;2.08;1.20;;;;;;;22.55;44.06;100461.44;1797345;79;21514;-74
2022/10/03 03:45:40;;;;;;;1.45;1.00;;;;;;;22.54;44.08;100455.08;1796668;79;21004;-74
2022/10/03 03:48:31;;;;;;;3.52;0.90;;;;;;;22.54;44.09;100446.77;1797364;79;21076;-74
2022/10/03 03:51:21;;;;;;;1.50;1.02;;;;;;;22.54;43.95;100437.63;1797238;79;21529;-74
2022/10/03 03:54:12;;;;;;;2.10;1.12;;;;;;;22.53;43.84;100431.88;1796350;78;21671;-74
2022/10/03 03:57:01;;;;;;;5.28;1.15;;;;;;;22.50;43.81;100437.50;1813885;77;21500;-76
2022/10/03 03:59:54;;;;;;;2.05;1.20;;;;;;;22.49;43.72;100450.34;1814815;79;21484;-76
2022/10/03 04:02:47;;;;;;;3.10;1.12;;;;;;;22.47;43.53;100461.75;1814310;79;21054;-75
2022/10/03 04:05:28;;;;;;;1.95;1.35;;;;;;;22.44;43.38;100442.22;1814632;79;20923;-76
2022/10/03 04:08:10;;;;;;;13.45;1.70;;;;;;;22.36;43.29;100445.30;1813819;78;21457;-75
2022/10/03 04:11:03;;;;;;;6.78;1.22;;;;;;;22.29;43.16;100442.23;1814306;79;21073;-75
2022/10/03 04:13:56;;;;;;;5.17;1.30;;;;;;;22.24;43.02;100441.05;1795678;79;21093;-75
2022/10/03 04:20:11;;;;;;;5.03;1.17;;;;;;;22.18;42.76;100447.95;1819220;78;21044;-75
2022/10/03 04:23:01;;;;;;;3.58;1.22;;;;;;;22.16;42.61;100453.82;1813847;78;21096;-73
2022/10/03 04:26:13;;;;;;;2.77;1.30;;;;;;;22.12;42.41;100458.98;1771664;80;21033;-75
2022/10/03 04:29:06;;;;;;;7.92;1.47;;;;;;;22.10;42.18;100464.06;1773653;80;21476;-73
2022/10/03 04:31:56;;;;;;;1.77;1.00;;;;;;;22.05;42.10;100451.79;1777726;78;21480;-74
2022/10/03 04:34:51;;;;;;;4.13;2.30;;;;;;;22.01;41.86;100446.11;1813431;78;21014;-75
2022/10/03 04:37:27;;;;;;;3.22;1.30;;;;;;;21.95;41.73;100452.98;1801951;78;21510;-72
2022/10/03 04:40:03;;;;;;;5.53;1.55;;;;;;;21.92;41.63;100445.35;1815417;78;21028;-74
2022/10/03 04:43:05;;;;;;;3.72;1.40;;;;;;;21.84;41.47;100446.19;1776370;78;21056;-74
2022/10/03 04:46:20;;;;;;;5.85;1.40;;;;;;;21.81;41.44;100453.78;1811170;78;21179;-75
2022/10/03 04:49:03;;;;;;;11.65;1.90;;;;;;;21.76;41.29;100450.63;1804565;78;21127;-78
2022/10/03 04:51:57;;;;;;;3.95;1.60;;;;;;;21.66;41.10;100450.19;1818917;78;21674;-76
2022/10/03 04:54:51;;;;;;;5.58;1.50;;;;;;;21.54;41.03;100452.84;1775393;78;21045;-74
2022/10/03 04:57:32;;;;;;;8.63;1.60;;;;;;;21.48;41.02;100445.30;1805087;77;21979;-77
2022/10/03 05:00:08;;;;;;;;;;;;;;;21.47;41.04;100445.64;1815918;77;21093;-77
2022/10/03 05:02:54;;;;;;;12.35;1.82;;;;;;;21.46;40.96;100444.01;1805403;77;20206;-76
2022/10/03 05:05:47;;;;;;;3.72;1.42;;;;;;;21.46;41.17;100446.21;1812824;76;21105;-76
2022/10/03 05:08:34;;;;;;;9.20;2.58;;;;;;;21.49;41.14;100448.88;1806105;78;21057;-76
2022/10/03 05:11:21;;;;;;;9.60;3.45;;;;;;;21.52;41.18;100449.02;1787666;78;21095;-75
2022/10/03 05:14:05;;;;;;;12.20;2.90;;;;;;;21.57;41.23;100443.30;1813787;77;21081;-75
2022/10/03 05:17:19;;;;;;;7.75;3.90;;;;;;;21.61;41.10;100438.72;1814844;76;21365;-76
2022/10/03 05:20:02;;;;;;;9.18;2.60;;;;;;;21.65;41.13;100444.39;1817767;77;21586;-75
2022/10/03 05:23:16;;;;;;;15.78;5.25;;;;;;;21.69;41.06;100435.09;1818626;78;21511;-75
2022/10/03 05:25:59;;;;;;;10.35;3.00;;;;;;;21.74;41.12;100440.45;1814031;78;21068;-76
2022/10/03 05:28:49;;;;;;;13.83;7.40;;;;;;;21.79;41.05;100440.83;1805782;78;21056;-75
2022/10/03 05:31:24;;;;;;;14.80;6.15;;;;;;;21.82;41.08;100444.31;1814401;77;21078;-76
2022/10/03 05:34:13;;;;;;;14.75;5.30;;;;;;;21.86;41.07;100445.27;1805923;77;21414;-75
2022/10/03 05:37:17;;;;;;;8.63;3.87;;;;;;;21.87;41.06;100435.25;1818230;78;21049;-75
2022/10/03 05:40:04;;;;;;;12.43;5.25;;;;;;;21.89;41.11;100434.92;1816294;77;21522;-76
2022/10/03 05:42:57;;;;;;;15.03;5.17;;;;;;;21.91;41.21;100427.64;1760552;79;21371;-76
2022/10/03 05:46:01;;;;;;;14.87;3.98;;;;;;;21.93;41.29;100424.01;1806024;77;21092;-76
2022/10/03 05:49:00;;;;;;;22.48;3.70;;;;;;;21.95;41.48;100434.16;1807911;78;21463;-80
2022/10/03 05:51:59;;;;;;;23.85;4.05;;;;;;;21.94;41.76;100438.10;1809435;77;21056;-78
2022/10/03 05:55:02;;;;;;;20.43;3.75;;;;;;;21.97;42.15;100423.00;1808659;76;21449;-75
2022/10/03 05:57:38;;;;;;;17.92;3.17;;;;;;;22.02;42.48;100436.66;1814899;76;21076;-76
2022/10/03 06:00:21;;;;;;;18.62;3.42;;;;;;;21.99;42.62;100435.93;1812885;77;21010;-76
2022/10/03 06:03:20;;;;;;;26.70;4.65;;;;;;;22.00;42.97;100438.95;1808344;76;22557;-74
2022/10/03 06:06:09;;;;;;;22.50;4.80;;;;;;;22.02;43.16;100440.00;1804967;77;20954;-74
2022/10/03 06:08:53;;;;;;;16.87;2.83;;;;;;;22.02;43.20;100438.62;1817459;77;21488;-74
2022/10/03 06:12:01;;;;;;;27.35;4.95;;;;;;;22.01;43.18;100442.53;1820128;77;20997;-74
2022/10/03 06:14:50;;;;;;;20.08;4.65;;;;;;;22.03;43.28;100451.30;1818650;78;20970;-73
2022/10/03 06:17:46;;;;;;;32.75;6.33;;;;;;;22.06;43.39;100432.64;1816985;78;21797;-74
2022/10/03 06:20:51;;;;;;;19.80;4.17;;;;;;;22.07;43.36;100437.83;1757745;78;21041;-72
2022/10/03 06:24:00;;;;;;;11.75;2.92;;;;;;;22.09;43.34;100441.66;1809937;77;21155;-74
2022/10/03 06:26:54;;;;;;;10.30;4.67;;;;;;;22.08;43.26;100442.23;1804757;78;21598;-75
2022/10/03 06:29:42;;;;;;;14.30;4.45;;;;;;;22.08;43.22;100450.54;1808978;77;21069;-75
2022/10/03 06:32:26;;;;;;;16.37;6.75;;;;;;;22.11;43.16;100465.67;1823334;77;21651;-74
2022/10/03 06:35:37;;;;;;;16.02;4.70;;;;;;;22.11;43.10;100463.71;1810317;77;21075;-74
2022/10/03 06:38:37;;;;;;;9.60;3.72;;;;;;;22.12;43.03;100458.98;1814874;77;22088;-74
2022/10/03 06:41:11;;;;;;;9.68;4.05;;;;;;;22.12;42.97;100466.73;1817929;78;21678;-73
2022/10/03 06:44:15;;;;;;;14.60;5.80;;;;;;;22.12;42.92;100463.14;1805888;78;21033;-73
2022/10/03 06:46:56;;;;;;;10.88;3.77;;;;;;;22.11;42.84;100465.09;1813381;78;21923;-75
2022/10/03 06:49:35;;;;;;;15.00;3.45;;;;;;;22.11;42.78;100472.59;1804556;78;21108;-74
2022/10/03 06:52:28;;;;;;;18.20;3.70;;;;;;;22.09;43.27;100474.91;1806558;77;21143;-77
2022/10/03 06:55:36;;;;;;;27.07;5.95;;;;;;;22.06;43.74;100468.09;1811460;77;21053;-74
2022/10/03 06:58:43;;;;;;;15.95;3.75;;;;;;;22.01;43.83;100471.62;1783364;78;21110;-74
2022/10/03 07:01:53;;;;;;;26.97;3.83;;;;;;;21.99;44.12;100476.09;1768069;78;22040;-75
2022/10/03 07:04:40;;;;;;;37.40;7.20;;;;;;;22.01;44.21;100474.39;1772910;78;21386;-75
2022/10/03 07:07:37;;;;;;;25.30;5.67;;;;;;;22.02;44.18;100471.86;1779356;80;21025;-76
2022/10/03 07:10:24;;;;;;;28.98;10.15;;;;;;;22.03;44.10;100475.66;1773592;80;21091;-76
2022/10/03 07:13:17;;;;;;;32.98;11.80;;;;;;;22.04;44.12;100471.75;1767982;80;21072;-74
2022/10/03 07:16:11;;;;;;;29.55;9.68;;;;;;;22.07;44.08;100466.10;1783365;80;21068;-76
2022/10/03 07:19:14;;;;;;;26.73;7.83;;;;;;;22.08;43.93;100457.47;1776342;78;21575;-75
2022/10/03 07:21:57;;;;;;;27.00;8.33;;;;;;;22.09;43.85;100454.13;1770474;80;21037;-76
2022/10/03 07:25:18;;;;;;;27.32;8.65;;;;;;;22.10;43.78;100459.34;1776744;78;21025;-75
2022/10/03 07:28:39;;;;;;;19.73;7.50;;;;;;;22.11;43.71;100455.40;1776068;78;21081;-76
2022/10/03 07:31:34;;;;;;;18.90;8.25;;;;;;;22.11;43.71;100454.59;1764094;80;22171;-76
2022/10/03 07:34:27;;;;;;;24.25;9.25;;;;;;;22.10;43.70;100456.57;1775392;78;21071;-76
2022/10/03 07:40:29;;;;;;;;;;;;;;;22.12;43.57;100457.03;1773178;78;21077;-73
2022/10/03 07:43:04;;;;;;;;;;;;;;;22.12;43.53;100452.88;1772635;79;20200;-75
2022/10/03 07:45:45;;;;;;;13.10;5.70;;;;;;;22.11;43.56;100458.74;1776808;78;21469;-79
2022/10/03 07:48:36;;;;;;;13.08;3.58;;;;;;;22.10;43.60;100464.88;1763130;78;21091;-78
2022/10/03 07:51:17;;;;;;;;;;;;;;;22.07;43.60;100465.53;1773486;78;21722;-76
2022/10/03 07:54:23;;;;;;;23.42;3.10;;;;;;;21.97;43.57;100465.13;1773251;80;20272;-75
2022/10/03 07:57:30;;;;;;;21.07;3.30;;;;;;;21.92;44.18;100463.89;1795386;77;21101;-76
2022/10/03 08:00:16;;;;;;;20.48;2.85;;;;;;;21.91;44.22;100452.56;1804846;77;21099;-78
2022/10/03 08:03:25;;;;;;;28.20;4.53;;;;;;;21.89;44.36;100447.38;1814248;77;20886;-76
2022/10/03 08:06:23;;;;;;;32.45;9.20;;;;;;;21.87;44.81;100447.70;1798476;76;22082;-78
2022/10/03 08:09:21;;;;;;;30.25;3.98;;;;;;;21.92;45.11;100441.73;1772219;79;21090;-80
2022/10/03 08:12:20;;;;;;;35.33;9.28;;;;;;;21.96;45.03;100446.30;1805076;77;22092;-85
2022/10/03 08:15:21;;;;;;;27.52;7.80;;;;;;;22.00;45.15;100446.44;1800755;77;21805;-81
2022/10/03 08:18:18;;;;;;;25.70;8.45;;;;;;;22.03;45.25;100434.11;1772254;80;28295;-83
2022/10/03 08:20:54;;;;;;;20.35;6.30;;;;;;;22.07;45.23;100442.55;1765050;80;21055;-82
2022/10/03 08:24:06;;;;;;;22.37;7.53;;;;;;;22.09;45.18;100429.19;1770508;80;21217;-85
2022/10/03 08:26:56;;;;;;;20.92;8.78;;;;;;;22.11;45.16;100425.49;1770248;78;21039;-82
2022/10/03 08:29:52;;;;;;;30.48;11.30;;;;;;;22.12;45.15;100420.20;1770755;78;21535;-82
2022/10/03 08:32:46;;;;;;;24.40;11.20;;;;;;;22.14;45.09;100415.14;1770512;80;21521;-76
2022/10/03 08:35:48;;;;;;;25.68;7.30;;;;;;;22.16;45.13;100424.73;1792878;79;21220;-76
2022/10/03 08:39:03;;;;;;;22.13;6.50;;;;;;;22.17;45.02;100413.89;1782722;79;21070;-77
2022/10/03 08:42:06;;;;;;;28.25;4.35;;;;;;;22.17;45.02;100415.28;1777656;79;21105;-77
2022/10/03 08:45:17;;;;;;;14.33;3.20;;;;;;;22.20;45.76;100415.16;1766402;79;22407;-75
2022/10/03 08:48:07;;;;;;;;;;;;;;;22.19;45.87;100409.41;1800779;79;21513;-75
2022/10/03 08:50:57;;;;;;;14.10;2.70;;;;;;;22.14;45.68;100404.88;1782017;76;20231;-79
2022/10/03 08:53:47;;;;;;;8.78;1.90;;;;;;;22.10;45.58;100403.94;1806310;78;21679;-77
2022/10/03 08:56:28;;;;;;;9.45;2.17;;;;;;;22.06;45.27;100398.83;1785092;78;38212;-75
2022/10/03 08:59:53;;;;;;;20.35;2.37;;;;;;;22.03;45.15;100395.89;1743893;78;21504;-77
2022/10/03 09:02:54;;;;;;;8.75;2.27;;;;;;;22.03;45.14;100402.25;1812619;77;21078;-78
2022/10/03 09:05:25;;;;;;;;;;;;;;;22.04;45.08;100398.91;1806425;77;21177;-80
2022/10/03 09:08:26;;;;;;;8.05;2.20;;;;;;;22.06;45.18;100397.45;1795338;78;20834;-78
2022/10/03 09:11:28;;;;;;;9.30;2.30;;;;;;;22.06;45.16;100393.86;1809665;77;21050;-77
2022/10/03 09:14:38;;;;;;;9.38;2.05;;;;;;;22.08;45.12;100394.31;1817198;77;21202;-76
2022/10/03 09:17:29;;;;;;;6.65;2.37;;;;;;;22.10;45.12;100387.31;1815103;78;20946;-76
2022/10/03 09:20:45;;;;;;;9.37;3.10;;;;;;;22.14;44.90;100385.48;1811863;78;21037;-77
2022/10/03 09:23:40;;;;;;;9.08;3.02;;;;;;;22.14;44.90;100385.48;1808421;77;21360;-78
2022/10/03 09:26:47;;;;;;;7.33;2.52;;;;;;;22.13;44.64;100388.01;1814149;77;21116;-78
2022/10/03 09:29:53;;;;;;;3.98;2.00;;;;;;;22.15;44.35;100386.30;1763411;78;21098;-78
2022/10/03 09:33:01;;;;;;;4.60;1.50;;;;;;;22.14;44.14;100379.13;1816107;78;21061;-77
2022/10/03 09:35:49;;;;;;;3.22;1.40;;;;;;;22.13;43.99;100378.31;1789700;78;21009;-78
2022/10/03 09:38:54;;;;;;;4.37;1.20;;;;;;;22.12;43.83;100377.25;1818274;76;21279;-77
2022/10/03 09:41:58;;;;;;;8.55;1.30;;;;;;;22.11;43.71;100365.36;1807485;78;21606;-77
2022/10/03 09:44:35;;;;;;;5.35;1.05;;;;;;;22.11;43.67;100359.81;1805307;78;21110;-78
2022/10/03 09:47:44;;;;;;;2.80;1.47;;;;;;;22.11;43.67;100357.61;1811218;78;21609;-77
2022/10/03 09:50:51;;;;;;;3.98;1.62;;;;;;;22.12;43.66;100349.55;1808958;78;21033;-79
2022/10/03 09:53:47;;;;;;;6.78;1.70;;;;;;;22.10;43.67;100355.45;1805596;77;21072;-79
2022/10/03 09:56:54;;;;;;;8.33;1.47;;;;;;;22.10;43.91;100358.22;1740812;80;21027;-77
2022/10/03 10:00:13;;;;;;;5.53;1.27;;;;;;;22.14;44.39;100360.55;1754837;79;21135;-76
2022/10/03 10:02:48;;;;;;;5.83;1.35;;;;;;;22.13;44.57;100357.53;1829539;76;21038;-76
2022/10/03 10:05:38;;;;;;;4.30;1.00;;;;;;;22.11;44.72;100361.77;1796670;78;22242;-78
2022/10/03 10:08:35;;;;;;;7.73;1.60;;;;;;;22.08;44.85;100360.50;1775488;79;21136;-77
2022/10/03 10:11:37;;;;;;;8.85;1.80;;;;;;;22.08;45.01;100349.98;1818449;78;21075;-77
2022/10/03 10:14:46;;;;;;;7.58;2.05;;;;;;;22.09;45.12;100346.89;1807828;76;21150;-77
2022/10/03 10:17:54;;;;;;;14.85;2.50;;;;;;;22.13;45.29;100355.33;1759069;79;21037;-76
2022/10/03 10:20:45;;;;;;;7.12;2.47;;;;;;;22.15;45.39;100347.51;1804960;78;21108;-77
2022/10/03 10:23:26;;;;;;;5.77;2.20;;;;;;;22.16;45.43;100342.17;1826196;77;21108;-77
2022/10/03 10:26:30;;;;;;;7.05;2.37;;;;;;;22.18;45.54;100331.58;1816154;78;21391;-77
2022/10/03 10:29:11;;;;;;;7.45;2.22;;;;;;;22.20;45.62;100325.11;1817328;78;21769;-77
2022/10/03 10:32:12;;;;;;;5.22;2.35;;;;;;;22.20;45.65;100329.27;1820464;76;21092;-78
2022/10/03 10:35:07;;;;;;;4.12;2.22;;;;;;;22.20;45.72;100334.23;1807921;78;21476;-77
2022/10/03 10:38:01;;;;;;;7.37;2.00;;;;;;;22.22;45.72;100328.36;1814631;78;21056;-79
2022/10/03 10:40:45;;;;;;;4.97;2.12;;;;;;;22.22;45.77;100325.59;1818380;78;21057;-79
2022/10/03 10:44:06;;;;;;;7.10;2.33;;;;;;;22.23;45.82;100327.22;1816095;76;21931;-79
2022/10/03 10:47:12;;;;;;;4.60;1.70;;;;;;;22.21;45.93;100326.73;1801281;78;22201;-78
2022/10/03 10:50:01;;;;;;;6.40;1.80;;;;;;;22.24;46.00;100328.81;1820262;76;21091;-79
2022/10/03 10:52:48;;;;;;;8.15;1.70;;;;;;;22.22;46.02;100325.59;1813276;78;21190;-79
2022/10/03 10:55:55;;;;;;;9.45;1.70;;;;;;;22.22;46.22;100315.89;1811516;78;21460;-78
2022/10/03 10:59:01;;;;;;;5.95;1.10;;;;;;;22.25;46.43;100315.20;1807050;78;21704;-77
2022/10/03 11:01:45;;;;;;;12.98;1.50;;;;;;;22.28;46.50;100316.72;1802220;78;21022;-76
2022/10/03 11:04:35;;;;;;;6.72;1.47;;;;;;;22.29;46.51;100318.34;1801822;78;21034;-79
2022/10/03 11:07:29;;;;;;;4.83;1.10;;;;;;;22.27;46.42;100305.98;1820479;77;21090;-76
2022/10/03 11:10:31;;;;;;;3.87;1.07;;;;;;;22.25;46.36;100302.73;1807590;78;21112;-76
2022/10/03 11:13:32;;;;;;;19.27;2.80;;;;;;;22.24;46.41;100294.18;1810273;78;21154;-77
2022/10/03 11:16:22;;;;;;;10.20;1.90;;;;;;;22.25;46.59;100302.73;1788446;78;21045;-78
2022/10/03 11:19:15;;;;;;;7.33;1.45;;;;;;;22.23;46.76;100296.74;1799087;78;21029;-78
2022/10/03 11:22:37;;;;;;;7.97;1.90;;;;;;;22.23;46.79;100290.63;1812544;78;21116;-78
2022/10/03 11:25:46;;;;;;;5.97;1.65;;;;;;;22.24;46.74;100298.34;1792700;78;21049;-78
2022/10/03 11:28:38;;;;;;;4.30;1.40;;;;;;;22.23;46.72;100285.09;1795709;78;22144;-79
2022/10/03 11:31:24;;;;;;;8.90;1.95;;;;;;;22.23;46.75;100287.86;1801495;78;21991;-78
2022/10/03 11:34:21;;;;;;;9.45;1.87;;;;;;;22.24;46.75;100287.25;1757830;80;21632;-79
2022/10/03 11:37:05;;;;;;;5.60;1.52;;;;;;;22.25;46.94;100284.72;1763017;80;21371;-77
2022/10/03 11:39:52;;;;;;;7.50;1.50;;;;;;;22.26;47.01;100271.92;1814259;78;21322;-77
2022/10/03 11:42:50;;;;;;;6.37;1.55;;;;;;;;;;1810785;78;21106;-77
2022/10/03 11:45:47;;;;;;;15.70;1.70;;;;;;;22.29;47.10;100267.08;1801928;78;21081;-78
2022/10/03 11:48:42;;;;;;;4.25;1.45;;;;;;;22.30;47.13;100270.66;1803730;78;21026;-79
2022/10/03 11:51:20;;;;;;;4.65;1.07;;;;;;;22.31;47.13;100270.33;1794390;78;21080;-80
2022/10/03 11:53:58;;;;;;;7.08;1.02;;;;;;;22.33;47.17;100268.58;1807868;78;21209;-80
2022/10/03 11:56:44;;;;;;;7.58;1.50;;;;;;;22.37;47.45;100274.25;1800526;78;21410;-78
2022/10/03 11:59:33;;;;;;;9.20;1.10;;;;;;;22.42;47.50;100269.30;1762216;78;21049;-79
2022/10/03 12:02:34;;;;;;;4.60;1.10;;;;;;;22.45;47.52;100271.37;1808264;78;21083;-78
2022/10/03 12:05:07;;;;;;;;;;;;;;;22.48;47.46;100265.17;1772349;80;21092;-79
2022/10/03 12:10:57;;;;;;;26.95;2.87;;;;;;;22.44;47.05;100250.38;1797001;78;21142;-79
2022/10/03 12:13:40;;;;;;;45.43;3.83;;;;;;;22.43;47.02;100244.59;1785498;77;21029;-80
2022/10/03 12:16:12;;;;;;;24.55;3.27;;;;;;;22.44;47.06;100244.02;1747038;79;21026;-79
2022/10/03 12:18:47;;;;;;;31.30;3.70;;;;;;;22.45;47.03;100251.20;1793335;78;21038;-79
2022/10/03 12:21:27;;;;;;;40.98;3.58;;;;;;;22.45;47.07;100240.89;1793306;79;21093;-78
2022/10/03 12:24:17;;;;;;;34.23;2.87;;;;;;;22.46;47.08;100239.74;1770277;80;22059;-78
2022/10/03 12:27:19;;;;;;;23.10;2.65;;;;;;;22.46;47.12;100234.77;1811385;78;21891;-79
2022/10/03 12:29:57;;;;;;;22.73;2.98;;;;;;;22.46;47.13;100234.77;1791531;77;20982;-79
2022/10/03 12:32:48;;;;;;;15.53;2.52;;;;;;;22.46;47.10;100221.73;1801752;78;21107;-80
2022/10/03 12:35:39;;;;;;;15.40;1.92;;;;;;;22.45;47.11;100231.19;1790769;80;21081;-78
2022/10/03 12:38:29;;;;;;;16.60;2.42;;;;;;;22.46;47.11;100227.27;1833867;77;21975;-79
2022/10/03 12:41:16;;;;;;;12.88;2.37;;;;;;;22.45;47.10;100206.24;1756108;79;21042;-80
2022/10/03 12:43:52;;;;;;;14.10;2.33;;;;;;;22.45;47.13;100266.44;1813219;78;21104;-78
2022/10/03 12:46:51;;;;;;;12.33;1.77;;;;;;;22.44;47.01;100273.94;1781745;78;21928;-78
2022/10/03 12:49:44;;;;;;;10.23;1.55;;;;;;;22.43;46.83;100282.02;1801397;78;21081;-78
2022/10/03 12:52:28;;;;;;;6.97;1.02;;;;;;;22.42;46.60;100290.66;1809796;78;21176;-79
2022/10/03 12:55:10;;;;;;;16.20;1.27;;;;;;;22.40;46.31;100301.30;1811788;78;21531;-77
2022/10/03 12:57:50;;;;;;;11.70;1.80;;;;;;;22.36;46.06;100316.42;1814568;77;21307;-76
2022/10/03 13:00:42;;;;;;;9.67;1.20;;;;;;;22.32;45.85;100319.61;1789955;78;21025;-79
2022/10/03 13:03:58;;;;;;;13.85;1.20;;;;;;;22.30;45.86;100322.74;1816729;78;21037;-80
2022/10/03 13:06:53;;;;;;;9.05;1.42;;;;;;;22.29;45.87;100334.97;1815487;78;21136;-80
2022/10/03 13:09:53;;;;;;;8.35;1.37;;;;;;;22.25;46.07;100318.79;1750210;80;22378;-78
2022/10/03 13:12:35;;;;;;;10.70;1.70;;;;;;;22.21;46.40;100296.26;1758243;80;21029;-78
2022/10/03 13:15:43;;;;;;;5.90;1.37;;;;;;;22.15;46.69;100270.71;1757087;80;21051;-78
2022/10/03 13:18:30;;;;;;;7.42;1.60;;;;;;;22.13;46.79;100283.30;1758455;80;21120;-80
2022/10/03 13:21:08;;;;;;;5.47;1.30;;;;;;;22.12;46.93;100281.09;1822943;77;21202;-79
2022/10/03 13:23:56;;;;;;;8.50;1.62;;;;;;;22.12;47.07;100274.17;1737110;79;21063;-79
2022/10/03 13:26:54;;;;;;;6.58;2.08;;;;;;;22.13;47.16;100275.80;1783196;80;22394;-79
2022/10/03 13:29:39;;;;;;;10.13;2.17;;;;;;;22.15;47.21;100283.78;1733937;80;21056;-79
2022/10/03 13:32:18;;;;;;;11.33;2.80;;;;;;;22.16;47.25;100286.77;1763119;80;21031;-79
2022/10/03 13:34:56;;;;;;;7.30;1.90;;;;;;;22.16;47.27;100290.34;1750296;80;21722;-79